sensor_id;sensor_type;location;lat;lon;timestamp;P1;durP1;ratioP1;P2;durP2;ratioP2
40953;SDS011;26686;50.130;8.710;2022-11-10T00:00:54;5.38;;;2.28;;
40953;SDS011;26686;50.130;8.710;2022-11-10T00:05:56;5.13;;;2.45;;
40953;SDS011;26686;50.130;8.710;2022-11-10T00:10:57;3.25;;;2.03;;
40953;SDS011;26686;50.130;8.710;2022-11-10T00:16:03;3.88;;;2.13;;
40953;SDS011;26686;50.130;8.710;2022-11-10T00:21:24;9.07;;;2.03;;
40953;SDS011;26686;50.130;8.710;2022-11-10T00:26:25;5.38;;;2.53;;
40953;SDS011;26686;50.130;8.710;2022-11-10T00:31:27;5.97;;;2.72;;
40953;SDS011;26686;50.130;8.710;2022-11-10T00:36:28;7.00;;;2.40;;
40953;SDS011;26686;50.130;8.710;2022-11-10T00:41:30;7.40;;;2.30;;
40953;SDS011;26686;50.130;8.710;2022-11-10T00:46:32;6.40;;;2.42;;
40953;SDS011;26686;50.130;8.710;2022-11-10T00:51:33;7.32;;;2.58;;
40953;SDS011;26686;50.130;8.710;2022-11-10T00:56:34;4.93;;;2.75;;
40953;SDS011;26686;50.130;8.710;2022-11-10T01:01:36;7.25;;;2.35;;
40953;SDS011;26686;50.130;8.710;2022-11-10T01:06:37;4.95;;;1.98;;
40953;SDS011;26686;50.130;8.710;2022-11-10T01:11:39;6.10;;;2.17;;
40953;SDS011;26686;50.130;8.710;2022-11-10T01:16:40;5.80;;;2.28;;
40953;SDS011;26686;50.130;8.710;2022-11-10T01:21:41;3.97;;;2.50;;
40953;SDS011;26686;50.130;8.710;2022-11-10T01:26:43;4.90;;;2.28;;
40953;SDS011;26686;50.130;8.710;2022-11-10T01:31:44;4.25;;;2.00;;
40953;SDS011;26686;50.130;8.710;2022-11-10T01:36:45;5.30;;;2.28;;
40953;SDS011;26686;50.130;8.710;2022-11-10T01:41:47;4.93;;;2.20;;
40953;SDS011;26686;50.130;8.710;2022-11-10T01:46:48;5.70;;;2.40;;
40953;SDS011;26686;50.130;8.710;2022-11-10T01:51:53;4.50;;;2.17;;
40953;SDS011;26686;50.130;8.710;2022-11-10T01:57:04;4.10;;;1.92;;
40953;SDS011;26686;50.130;8.710;2022-11-10T02:02:22;6.07;;;2.40;;
40953;SDS011;26686;50.130;8.710;2022-11-10T02:07:28;4.07;;;2.38;;
40953;SDS011;26686;50.130;8.710;2022-11-10T02:12:31;5.10;;;2.45;;
40953;SDS011;26686;50.130;8.710;2022-11-10T02:17:39;6.18;;;2.03;;
40953;SDS011;26686;50.130;8.710;2022-11-10T02:22:41;4.70;;;2.00;;
40953;SDS011;26686;50.130;8.710;2022-11-10T02:27:43;7.85;;;2.75;;
40953;SDS011;26686;50.130;8.710;2022-11-10T02:32:44;4.25;;;2.25;;
40953;SDS011;26686;50.130;8.710;2022-11-10T02:37:46;8.38;;;2.55;;
40953;SDS011;26686;50.130;8.710;2022-11-10T02:42:47;8.70;;;2.53;;
40953;SDS011;26686;50.130;8.710;2022-11-10T02:47:48;6.72;;;2.30;;
40953;SDS011;26686;50.130;8.710;2022-11-10T02:52:50;4.05;;;2.38;;
40953;SDS011;26686;50.130;8.710;2022-11-10T02:57:51;5.72;;;2.10;;
40953;SDS011;26686;50.130;8.710;2022-11-10T03:02:56;8.13;;;2.67;;
40953;SDS011;26686;50.130;8.710;2022-11-10T03:07:59;7.97;;;2.60;;
40953;SDS011;26686;50.130;8.710;2022-11-10T03:13:02;5.78;;;2.28;;
40953;SDS011;26686;50.130;8.710;2022-11-10T03:18:03;7.68;;;2.10;;
40953;SDS011;26686;50.130;8.710;2022-11-10T03:23:05;4.07;;;2.05;;
40953;SDS011;26686;50.130;8.710;2022-11-10T03:28:07;4.60;;;2.10;;
40953;SDS011;26686;50.130;8.710;2022-11-10T03:33:09;7.43;;;2.25;;
40953;SDS011;26686;50.130;8.710;2022-11-10T03:38:10;4.70;;;2.08;;
40953;SDS011;26686;50.130;8.710;2022-11-10T03:43:11;7.00;;;3.03;;
40953;SDS011;26686;50.130;8.710;2022-11-10T03:48:12;4.78;;;2.95;;
40953;SDS011;26686;50.130;8.710;2022-11-10T03:53:14;6.40;;;2.50;;
40953;SDS011;26686;50.130;8.710;2022-11-10T03:58:15;6.47;;;2.75;;
40953;SDS011;26686;50.130;8.710;2022-11-10T04:03:16;9.70;;;2.67;;
40953;SDS011;26686;50.130;8.710;2022-11-10T04:08:17;5.47;;;2.72;;
40953;SDS011;26686;50.130;8.710;2022-11-10T04:13:37;4.72;;;2.45;;
40953;SDS011;26686;50.130;8.710;2022-11-10T04:18:57;5.65;;;1.83;;
40953;SDS011;26686;50.130;8.710;2022-11-10T04:23:58;6.93;;;2.70;;
40953;SDS011;26686;50.130;8.710;2022-11-10T04:29:00;7.40;;;2.95;;
40953;SDS011;26686;50.130;8.710;2022-11-10T04:34:07;5.47;;;2.42;;
40953;SDS011;26686;50.130;8.710;2022-11-10T04:39:10;5.10;;;2.45;;
40953;SDS011;26686;50.130;8.710;2022-11-10T04:44:12;7.07;;;2.95;;
40953;SDS011;26686;50.130;8.710;2022-11-10T04:49:13;5.70;;;2.58;;
40953;SDS011;26686;50.130;8.710;2022-11-10T04:54:14;5.50;;;2.60;;
40953;SDS011;26686;50.130;8.710;2022-11-10T04:59:16;6.78;;;2.67;;
40953;SDS011;26686;50.130;8.710;2022-11-10T05:04:17;6.32;;;2.58;;
40953;SDS011;26686;50.130;8.710;2022-11-10T05:09:18;8.90;;;3.10;;
40953;SDS011;26686;50.130;8.710;2022-11-10T05:14:20;7.25;;;2.70;;
40953;SDS011;26686;50.130;8.710;2022-11-10T05:19:21;8.90;;;3.42;;
40953;SDS011;26686;50.130;8.710;2022-11-10T05:24:22;6.82;;;2.70;;
40953;SDS011;26686;50.130;8.710;2022-11-10T05:29:24;7.82;;;3.90;;
40953;SDS011;26686;50.130;8.710;2022-11-10T05:34:25;9.60;;;3.85;;
40953;SDS011;26686;50.130;8.710;2022-11-10T05:39:26;5.95;;;3.00;;
40953;SDS011;26686;50.130;8.710;2022-11-10T05:44:28;4.43;;;2.85;;
40953;SDS011;26686;50.130;8.710;2022-11-10T05:49:29;6.53;;;2.88;;
40953;SDS011;26686;50.130;8.710;2022-11-10T05:54:30;7.88;;;4.40;;
40953;SDS011;26686;50.130;8.710;2022-11-10T05:59:32;5.22;;;3.55;;
40953;SDS011;26686;50.130;8.710;2022-11-10T06:04:33;6.97;;;3.72;;
40953;SDS011;26686;50.130;8.710;2022-11-10T06:09:34;11.13;;;5.82;;
40953;SDS011;26686;50.130;8.710;2022-11-10T06:14:36;9.95;;;4.50;;
40953;SDS011;26686;50.130;8.710;2022-11-10T06:19:37;9.65;;;5.22;;
40953;SDS011;26686;50.130;8.710;2022-11-10T06:24:39;8.88;;;5.07;;
40953;SDS011;26686;50.130;8.710;2022-11-10T06:29:40;11.95;;;5.13;;
40953;SDS011;26686;50.130;8.710;2022-11-10T06:34:41;11.20;;;6.10;;
40953;SDS011;26686;50.130;8.710;2022-11-10T06:39:43;6.00;;;4.88;;
40953;SDS011;26686;50.130;8.710;2022-11-10T06:44:46;8.25;;;5.80;;
40953;SDS011;26686;50.130;8.710;2022-11-10T06:49:47;8.00;;;5.93;;
40953;SDS011;26686;50.130;8.710;2022-11-10T06:54:49;7.95;;;5.45;;
40953;SDS011;26686;50.130;8.710;2022-11-10T06:59:50;13.52;;;6.25;;
40953;SDS011;26686;50.130;8.710;2022-11-10T07:04:51;8.30;;;6.13;;
40953;SDS011;26686;50.130;8.710;2022-11-10T07:09:54;8.75;;;6.03;;
40953;SDS011;26686;50.130;8.710;2022-11-10T07:14:55;11.50;;;6.85;;
40953;SDS011;26686;50.130;8.710;2022-11-10T07:19:56;12.35;;;6.80;;
40953;SDS011;26686;50.130;8.710;2022-11-10T07:24:58;12.10;;;7.93;;
40953;SDS011;26686;50.130;8.710;2022-11-10T07:29:59;6.72;;;5.93;;
40953;SDS011;26686;50.130;8.710;2022-11-10T07:35:00;9.70;;;5.78;;
40953;SDS011;26686;50.130;8.710;2022-11-10T07:40:02;8.15;;;5.68;;
40953;SDS011;26686;50.130;8.710;2022-11-10T07:45:04;11.80;;;7.45;;
40953;SDS011;26686;50.130;8.710;2022-11-10T07:50:05;10.60;;;5.88;;
40953;SDS011;26686;50.130;8.710;2022-11-10T07:55:07;11.25;;;6.70;;
40953;SDS011;26686;50.130;8.710;2022-11-10T08:00:09;10.10;;;6.35;;
40953;SDS011;26686;50.130;8.710;2022-11-10T08:05:12;8.73;;;6.13;;
40953;SDS011;26686;50.130;8.710;2022-11-10T08:10:14;7.95;;;5.70;;
40953;SDS011;26686;50.130;8.710;2022-11-10T08:15:15;8.00;;;5.15;;
40953;SDS011;26686;50.130;8.710;2022-11-10T08:20:17;8.50;;;5.75;;
40953;SDS011;26686;50.130;8.710;2022-11-10T08:25:18;10.68;;;6.22;;
40953;SDS011;26686;50.130;8.710;2022-11-10T08:30:20;7.97;;;5.80;;
40953;SDS011;26686;50.130;8.710;2022-11-10T08:35:22;5.75;;;5.13;;
40953;SDS011;26686;50.130;8.710;2022-11-10T08:40:25;8.30;;;5.43;;
40953;SDS011;26686;50.130;8.710;2022-11-10T08:45:27;7.53;;;5.03;;
40953;SDS011;26686;50.130;8.710;2022-11-10T08:50:29;8.15;;;5.78;;
40953;SDS011;26686;50.130;8.710;2022-11-10T08:55:31;6.95;;;4.53;;
40953;SDS011;26686;50.130;8.710;2022-11-10T09:00:33;8.13;;;5.15;;
40953;SDS011;26686;50.130;8.710;2022-11-10T09:05:34;8.02;;;4.28;;
40953;SDS011;26686;50.130;8.710;2022-11-10T09:10:38;8.70;;;4.32;;
40953;SDS011;26686;50.130;8.710;2022-11-10T09:15:41;11.60;;;4.20;;
40953;SDS011;26686;50.130;8.710;2022-11-10T09:20:43;6.22;;;4.25;;
40953;SDS011;26686;50.130;8.710;2022-11-10T09:25:49;8.70;;;4.55;;
40953;SDS011;26686;50.130;8.710;2022-11-10T09:30:52;7.85;;;4.05;;
40953;SDS011;26686;50.130;8.710;2022-11-10T09:35:57;9.27;;;5.03;;
40953;SDS011;26686;50.130;8.710;2022-11-10T09:41:00;5.45;;;3.78;;
40953;SDS011;26686;50.130;8.710;2022-11-10T09:46:08;8.15;;;3.80;;
40953;SDS011;26686;50.130;8.710;2022-11-10T09:56:31;7.35;;;3.38;;
40953;SDS011;26686;50.130;8.710;2022-11-10T10:01:42;8.75;;;4.18;;
40953;SDS011;26686;50.130;8.710;2022-11-10T10:06:57;8.65;;;3.35;;
40953;SDS011;26686;50.130;8.710;2022-11-10T10:23:01;7.03;;;3.40;;
40953;SDS011;26686;50.130;8.710;2022-11-10T10:33:20;7.70;;;3.80;;
40953;SDS011;26686;50.130;8.710;2022-11-10T10:38:26;9.07;;;3.17;;
40953;SDS011;26686;50.130;8.710;2022-11-10T10:43:32;8.27;;;3.10;;
40953;SDS011;26686;50.130;8.710;2022-11-10T10:48:34;6.82;;;3.63;;
40953;SDS011;26686;50.130;8.710;2022-11-10T10:53:46;5.97;;;3.03;;
40953;SDS011;26686;50.130;8.710;2022-11-10T10:58:52;6.90;;;3.10;;
40953;SDS011;26686;50.130;8.710;2022-11-10T11:03:55;7.97;;;3.58;;
40953;SDS011;26686;50.130;8.710;2022-11-10T11:09:15;5.32;;;3.20;;
40953;SDS011;26686;50.130;8.710;2022-11-10T11:14:24;6.47;;;2.85;;
40953;SDS011;26686;50.130;8.710;2022-11-10T11:19:31;5.90;;;2.95;;
40953;SDS011;26686;50.130;8.710;2022-11-10T11:24:42;7.57;;;2.72;;
40953;SDS011;26686;50.130;8.710;2022-11-10T11:29:57;5.97;;;2.60;;
40953;SDS011;26686;50.130;8.710;2022-11-10T11:35:13;8.18;;;3.28;;
40953;SDS011;26686;50.130;8.710;2022-11-10T11:40:28;4.28;;;2.33;;
40953;SDS011;26686;50.130;8.710;2022-11-10T11:45:57;4.90;;;2.30;;
40953;SDS011;26686;50.130;8.710;2022-11-10T11:51:03;6.13;;;2.20;;
40953;SDS011;26686;50.130;8.710;2022-11-10T11:56:34;5.35;;;2.20;;
40953;SDS011;26686;50.130;8.710;2022-11-10T12:01:54;4.05;;;2.20;;
40953;SDS011;26686;50.130;8.710;2022-11-10T12:07:54;7.47;;;2.67;;
40953;SDS011;26686;50.130;8.710;2022-11-10T12:12:44;7.78;;;2.17;;
40953;SDS011;26686;50.130;8.710;2022-11-10T12:23:33;3.78;;;1.60;;
40953;SDS011;26686;50.130;8.710;2022-11-10T12:28:48;5.00;;;1.92;;
40953;SDS011;26686;50.130;8.710;2022-11-10T12:33:59;5.78;;;2.17;;
40953;SDS011;26686;50.130;8.710;2022-11-10T12:44:57;4.25;;;2.10;;
40953;SDS011;26686;50.130;8.710;2022-11-10T12:51:01;4.70;;;2.25;;
40953;SDS011;26686;50.130;8.710;2022-11-10T12:55:46;4.93;;;2.17;;
40953;SDS011;26686;50.130;8.710;2022-11-10T13:01:01;4.70;;;1.80;;
40953;SDS011;26686;50.130;8.710;2022-11-10T13:06:08;6.82;;;1.98;;
40953;SDS011;26686;50.130;8.710;2022-11-10T13:11:28;5.45;;;1.58;;
40953;SDS011;26686;50.130;8.710;2022-11-10T13:31:55;5.03;;;1.77;;
40953;SDS011;26686;50.130;8.710;2022-11-10T13:42:34;5.00;;;1.50;;
40953;SDS011;26686;50.130;8.710;2022-11-10T13:47:38;4.30;;;1.75;;
40953;SDS011;26686;50.130;8.710;2022-11-10T13:58:02;5.13;;;2.03;;
40953;SDS011;26686;50.130;8.710;2022-11-10T14:03:06;5.65;;;2.00;;
40953;SDS011;26686;50.130;8.710;2022-11-10T14:18:44;6.57;;;2.50;;
40953;SDS011;26686;50.130;8.710;2022-11-10T14:23:56;6.63;;;2.55;;
40953;SDS011;26686;50.130;8.710;2022-11-10T14:34:42;5.50;;;2.28;;
40953;SDS011;26686;50.130;8.710;2022-11-10T14:39:50;5.28;;;2.35;;
40953;SDS011;26686;50.130;8.710;2022-11-10T14:45:06;6.95;;;2.92;;
40953;SDS011;26686;50.130;8.710;2022-11-10T14:55:16;3.90;;;2.53;;
40953;SDS011;26686;50.130;8.710;2022-11-10T15:00:22;5.18;;;2.72;;
40953;SDS011;26686;50.130;8.710;2022-11-10T15:05:26;6.82;;;2.90;;
40953;SDS011;26686;50.130;8.710;2022-11-10T15:15:40;7.13;;;3.08;;
40953;SDS011;26686;50.130;8.710;2022-11-10T15:20:42;6.40;;;2.38;;
40953;SDS011;26686;50.130;8.710;2022-11-10T15:25:45;6.30;;;2.70;;
40953;SDS011;26686;50.130;8.710;2022-11-10T15:30:54;5.90;;;2.60;;
40953;SDS011;26686;50.130;8.710;2022-11-10T15:41:28;6.65;;;3.50;;
40953;SDS011;26686;50.130;8.710;2022-11-10T15:46:32;5.18;;;4.00;;
40953;SDS011;26686;50.130;8.710;2022-11-10T15:51:34;8.18;;;3.75;;
40953;SDS011;26686;50.130;8.710;2022-11-10T15:56:35;8.73;;;3.63;;
40953;SDS011;26686;50.130;8.710;2022-11-10T16:01:36;9.95;;;3.92;;
40953;SDS011;26686;50.130;8.710;2022-11-10T16:06:38;7.70;;;4.32;;
40953;SDS011;26686;50.130;8.710;2022-11-10T16:11:41;6.90;;;4.32;;
40953;SDS011;26686;50.130;8.710;2022-11-10T16:16:44;7.85;;;3.47;;
40953;SDS011;26686;50.130;8.710;2022-11-10T16:21:45;7.85;;;3.65;;
40953;SDS011;26686;50.130;8.710;2022-11-10T16:26:47;5.85;;;3.58;;
40953;SDS011;26686;50.130;8.710;2022-11-10T16:31:49;6.38;;;3.30;;
40953;SDS011;26686;50.130;8.710;2022-11-10T16:36:50;7.47;;;3.88;;
40953;SDS011;26686;50.130;8.710;2022-11-10T16:41:52;9.27;;;3.78;;
40953;SDS011;26686;50.130;8.710;2022-11-10T16:46:53;8.85;;;3.75;;
40953;SDS011;26686;50.130;8.710;2022-11-10T16:52:01;6.90;;;3.90;;
40953;SDS011;26686;50.130;8.710;2022-11-10T16:57:11;8.10;;;4.15;;
40953;SDS011;26686;50.130;8.710;2022-11-10T17:02:24;8.15;;;3.75;;
40953;SDS011;26686;50.130;8.710;2022-11-10T17:07:31;9.38;;;4.95;;
40953;SDS011;26686;50.130;8.710;2022-11-10T17:12:33;7.10;;;4.28;;
40953;SDS011;26686;50.130;8.710;2022-11-10T17:17:35;6.15;;;3.90;;
40953;SDS011;26686;50.130;8.710;2022-11-10T17:22:36;4.55;;;3.85;;
40953;SDS011;26686;50.130;8.710;2022-11-10T17:27:38;9.93;;;4.82;;
40953;SDS011;26686;50.130;8.710;2022-11-10T17:32:39;6.18;;;4.07;;
40953;SDS011;26686;50.130;8.710;2022-11-10T17:38:00;7.70;;;4.47;;
40953;SDS011;26686;50.130;8.710;2022-11-10T17:43:02;9.85;;;4.15;;
40953;SDS011;26686;50.130;8.710;2022-11-10T17:48:03;5.97;;;4.07;;
40953;SDS011;26686;50.130;8.710;2022-11-10T17:53:19;7.18;;;4.30;;
40953;SDS011;26686;50.130;8.710;2022-11-10T17:58:22;7.25;;;4.18;;
40953;SDS011;26686;50.130;8.710;2022-11-10T18:03:23;7.60;;;4.97;;
40953;SDS011;26686;50.130;8.710;2022-11-10T18:08:25;8.23;;;4.50;;
40953;SDS011;26686;50.130;8.710;2022-11-10T18:13:26;7.75;;;5.10;;
40953;SDS011;26686;50.130;8.710;2022-11-10T18:18:28;10.02;;;5.70;;
40953;SDS011;26686;50.130;8.710;2022-11-10T18:23:29;9.70;;;6.18;;
40953;SDS011;26686;50.130;8.710;2022-11-10T18:28:31;12.05;;;6.68;;
40953;SDS011;26686;50.130;8.710;2022-11-10T18:33:33;10.10;;;5.50;;
40953;SDS011;26686;50.130;8.710;2022-11-10T18:38:35;10.18;;;6.47;;
40953;SDS011;26686;50.130;8.710;2022-11-10T18:43:36;7.97;;;5.45;;
40953;SDS011;26686;50.130;8.710;2022-11-10T18:48:37;8.60;;;6.40;;
40953;SDS011;26686;50.130;8.710;2022-11-10T18:53:39;10.55;;;6.13;;
40953;SDS011;26686;50.130;8.710;2022-11-10T18:58:40;10.75;;;7.13;;
40953;SDS011;26686;50.130;8.710;2022-11-10T19:03:42;10.05;;;7.15;;
40953;SDS011;26686;50.130;8.710;2022-11-10T19:08:45;13.57;;;8.95;;
40953;SDS011;26686;50.130;8.710;2022-11-10T19:13:46;10.65;;;7.45;;
40953;SDS011;26686;50.130;8.710;2022-11-10T19:18:48;11.68;;;7.95;;
40953;SDS011;26686;50.130;8.710;2022-11-10T19:23:52;18.83;;;15.77;;
40953;SDS011;26686;50.130;8.710;2022-11-10T19:28:55;11.45;;;9.02;;
40953;SDS011;26686;50.130;8.710;2022-11-10T19:33:56;17.98;;;16.10;;
40953;SDS011;26686;50.130;8.710;2022-11-10T19:38:58;10.65;;;8.02;;
40953;SDS011;26686;50.130;8.710;2022-11-10T19:43:59;13.00;;;11.38;;
40953;SDS011;26686;50.130;8.710;2022-11-10T19:49:01;11.85;;;9.80;;
40953;SDS011;26686;50.130;8.710;2022-11-10T19:54:04;19.73;;;15.45;;
40953;SDS011;26686;50.130;8.710;2022-11-10T19:59:05;11.38;;;8.93;;
40953;SDS011;26686;50.130;8.710;2022-11-10T20:04:08;7.07;;;6.10;;
40953;SDS011;26686;50.130;8.710;2022-11-10T20:09:09;9.30;;;7.95;;
40953;SDS011;26686;50.130;8.710;2022-11-10T20:14:11;12.13;;;8.55;;
40953;SDS011;26686;50.130;8.710;2022-11-10T20:19:12;11.07;;;7.45;;
40953;SDS011;26686;50.130;8.710;2022-11-10T20:24:13;9.10;;;6.68;;
40953;SDS011;26686;50.130;8.710;2022-11-10T20:29:15;9.68;;;6.82;;
40953;SDS011;26686;50.130;8.710;2022-11-10T20:34:16;13.18;;;7.65;;
40953;SDS011;26686;50.130;8.710;2022-11-10T20:39:17;10.57;;;7.13;;
40953;SDS011;26686;50.130;8.710;2022-11-10T20:44:19;11.77;;;6.85;;
40953;SDS011;26686;50.130;8.710;2022-11-10T20:49:20;10.05;;;7.38;;
40953;SDS011;26686;50.130;8.710;2022-11-10T20:54:21;8.90;;;7.05;;
40953;SDS011;26686;50.130;8.710;2022-11-10T20:59:22;10.95;;;8.07;;
40953;SDS011;26686;50.130;8.710;2022-11-10T21:04:24;9.27;;;7.07;;
40953;SDS011;26686;50.130;8.710;2022-11-10T21:09:25;11.85;;;7.22;;
40953;SDS011;26686;50.130;8.710;2022-11-10T21:14:27;11.00;;;7.40;;
40953;SDS011;26686;50.130;8.710;2022-11-10T21:19:32;8.80;;;6.85;;
40953;SDS011;26686;50.130;8.710;2022-11-10T21:24:34;11.73;;;7.80;;
40953;SDS011;26686;50.130;8.710;2022-11-10T21:29:35;9.90;;;7.43;;
40953;SDS011;26686;50.130;8.710;2022-11-10T21:34:37;12.00;;;8.05;;
40953;SDS011;26686;50.130;8.710;2022-11-10T21:39:38;9.45;;;8.18;;
40953;SDS011;26686;50.130;8.710;2022-11-10T21:44:40;12.73;;;7.45;;
40953;SDS011;26686;50.130;8.710;2022-11-10T21:49:41;12.52;;;7.38;;
40953;SDS011;26686;50.130;8.710;2022-11-10T21:54:43;11.57;;;9.02;;
40953;SDS011;26686;50.130;8.710;2022-11-10T21:59:44;9.68;;;8.50;;
40953;SDS011;26686;50.130;8.710;2022-11-10T22:04:45;12.70;;;8.63;;
40953;SDS011;26686;50.130;8.710;2022-11-10T22:09:47;9.82;;;7.70;;
40953;SDS011;26686;50.130;8.710;2022-11-10T22:15:11;13.20;;;7.22;;
40953;SDS011;26686;50.130;8.710;2022-11-10T22:20:32;12.80;;;8.30;;
40953;SDS011;26686;50.130;8.710;2022-11-10T22:25:34;11.65;;;8.02;;
40953;SDS011;26686;50.130;8.710;2022-11-10T22:30:35;10.73;;;7.43;;
40953;SDS011;26686;50.130;8.710;2022-11-10T22:35:37;11.52;;;8.48;;
40953;SDS011;26686;50.130;8.710;2022-11-10T22:40:45;12.38;;;7.63;;
40953;SDS011;26686;50.130;8.710;2022-11-10T22:46:05;12.98;;;7.55;;
40953;SDS011;26686;50.130;8.710;2022-11-10T22:51:06;13.15;;;8.93;;
40953;SDS011;26686;50.130;8.710;2022-11-10T22:56:07;11.63;;;8.18;;
40953;SDS011;26686;50.130;8.710;2022-11-10T23:01:09;9.63;;;7.53;;
40953;SDS011;26686;50.130;8.710;2022-11-10T23:06:11;9.32;;;7.43;;
40953;SDS011;26686;50.130;8.710;2022-11-10T23:11:17;9.73;;;7.90;;
40953;SDS011;26686;50.130;8.710;2022-11-10T23:16:24;14.82;;;8.55;;
40953;SDS011;26686;50.130;8.710;2022-11-10T23:21:27;10.55;;;8.13;;
40953;SDS011;26686;50.130;8.710;2022-11-10T23:26:30;9.70;;;7.38;;
40953;SDS011;26686;50.130;8.710;2022-11-10T23:31:33;11.77;;;7.95;;
40953;SDS011;26686;50.130;8.710;2022-11-10T23:36:35;9.32;;;7.22;;
40953;SDS011;26686;50.130;8.710;2022-11-10T23:41:36;10.10;;;7.28;;
40953;SDS011;26686;50.130;8.710;2022-11-10T23:46:37;11.10;;;6.68;;
40953;SDS011;26686;50.130;8.710;2022-11-10T23:51:39;9.23;;;6.93;;
40953;SDS011;26686;50.130;8.710;2022-11-10T23:56:40;10.35;;;7.40;;
